createdAt,value
2023-01-29T00:02:12.586Z,86.31
2023-01-29T00:05:13.028Z,86.26
2023-01-29T00:08:08.750Z,86.24
2023-01-29T00:11:02.980Z,86.18
2023-01-29T00:13:51.128Z,86.03
2023-01-29T00:16:39.562Z,85.98
2023-01-29T00:19:27.751Z,85.86
2023-01-29T00:22:15.963Z,85.82
2023-01-29T00:25:03.852Z,85.87
2023-01-29T00:27:52.192Z,86.04
2023-01-29T00:30:40.860Z,86.06
2023-01-29T00:33:29.434Z,85.75
2023-01-29T00:36:20.369Z,85.79
2023-01-29T00:39:11.045Z,85.68
2023-01-29T00:42:17.271Z,85.79
2023-01-29T00:45:06.054Z,85.68
2023-01-29T00:47:53.992Z,85.82
2023-01-29T00:50:42.739Z,85.86
2023-01-29T00:53:30.547Z,85.93
2023-01-29T00:56:18.231Z,86.26
2023-01-29T00:59:06.110Z,86.38
2023-01-29T01:02:12.733Z,86.93
2023-01-29T01:05:03.203Z,87.47
2023-01-29T01:07:54.416Z,88.58
2023-01-29T01:10:42.652Z,89.88
2023-01-29T01:13:34.062Z,90.83
2023-01-29T01:16:23.021Z,90.97
2023-01-29T01:19:11.156Z,91.51
2023-01-29T01:21:59.083Z,92.15
2023-01-29T01:24:47.724Z,92.54
2023-01-29T01:27:37.859Z,93.15
2023-01-29T01:30:27.624Z,93.42
2023-01-29T01:33:16.681Z,93.78
2023-01-29T01:36:09.934Z,94.08
2023-01-29T01:38:58.798Z,94.87
2023-01-29T01:41:47.191Z,95.83
2023-01-29T01:44:53.583Z,95.96
2023-01-29T01:47:49.273Z,96.50
2023-01-29T01:50:48.895Z,96.89
2023-01-29T01:53:43.761Z,97.90
2023-01-29T01:56:38.670Z,98.12
2023-01-29T01:59:26.730Z,97.91
2023-01-29T02:02:35.221Z,98.08
2023-01-29T02:05:42.321Z,97.92
2023-01-29T02:09:22.699Z,98.36
2023-01-29T02:12:16.409Z,98.04
2023-01-29T02:15:07.039Z,98.32
2023-01-29T02:17:55.300Z,98.51
2023-01-29T02:21:15.304Z,98.79
2023-01-29T02:24:52.852Z,98.69
2023-01-29T02:27:50.002Z,98.82
2023-01-29T02:30:53.114Z,99.39
2023-01-29T02:34:52.935Z,99.76
2023-01-29T02:38:21.602Z,99.66
2023-01-29T02:41:24.065Z,99.34
2023-01-29T02:44:24.899Z,99.21
2023-01-29T02:47:21.543Z,99.59
2023-01-29T02:50:36.428Z,99.76
2023-01-29T02:53:44.678Z,99.88
2023-01-29T02:57:16.411Z,99.98
2023-01-29T03:00:26.583Z,99.99
2023-01-29T03:03:39.705Z,100.00
2023-01-29T03:06:53.342Z,100.00
2023-01-29T03:09:50.328Z,100.00
2023-01-29T03:12:41.070Z,100.00
2023-01-29T03:15:39.341Z,100.00
2023-01-29T03:19:32.119Z,100.00
2023-01-29T03:22:23.443Z,100.00
2023-01-29T03:25:32.974Z,100.00
2023-01-29T03:28:42.571Z,100.00
2023-01-29T03:31:51.168Z,100.00
2023-01-29T03:34:46.825Z,100.00
2023-01-29T03:37:48.320Z,100.00
2023-01-29T03:40:55.199Z,100.00
2023-01-29T03:44:13.021Z,100.00
2023-01-29T03:47:13.835Z,100.00
2023-01-29T03:50:38.662Z,100.00
2023-01-29T03:54:05.168Z,100.00
2023-01-29T03:57:17.063Z,100.00
2023-01-29T04:00:14.871Z,100.00
2023-01-29T04:03:34.237Z,100.00
2023-01-29T04:06:30.056Z,100.00
2023-01-29T04:09:34.314Z,100.00
2023-01-29T04:12:31.943Z,100.00
2023-01-29T04:15:23.383Z,100.00
2023-01-29T04:18:11.401Z,100.00
2023-01-29T04:21:19.854Z,100.00
2023-01-29T04:24:08.980Z,100.00
2023-01-29T04:27:15.886Z,100.00
2023-01-29T04:30:37.276Z,100.00
2023-01-29T04:34:04.803Z,100.00
2023-01-29T04:37:14.780Z,100.00
2023-01-29T04:40:27.703Z,100.00
2023-01-29T04:43:31.066Z,100.00
2023-01-29T04:46:37.496Z,100.00
2023-01-29T04:50:30.123Z,100.00
2023-01-29T04:53:50.694Z,100.00
2023-01-29T04:56:55.109Z,100.00
2023-01-29T04:59:48.919Z,100.00
2023-01-29T05:02:39.571Z,100.00
2023-01-29T05:05:28.813Z,100.00
2023-01-29T05:08:21.676Z,100.00
2023-01-29T05:11:10.545Z,100.00
2023-01-29T05:13:59.873Z,100.00
2023-01-29T05:16:52.745Z,100.00
2023-01-29T05:19:42.069Z,100.00
2023-01-29T05:22:30.831Z,100.00
2023-01-29T05:25:27.291Z,100.00
2023-01-29T05:28:19.021Z,100.00
2023-01-29T05:31:07.245Z,100.00
2023-01-29T05:33:55.995Z,100.00
2023-01-29T05:36:43.878Z,100.00
2023-01-29T05:39:31.796Z,100.00
2023-01-29T05:42:19.829Z,100.00
2023-01-29T05:45:09.283Z,100.00
2023-01-29T05:47:59.818Z,100.00
2023-01-29T05:50:48.366Z,100.00
2023-01-29T05:53:36.298Z,100.00
2023-01-29T05:56:25.423Z,100.00
2023-01-29T05:59:13.507Z,100.00
2023-01-29T06:02:01.188Z,100.00
2023-01-29T06:04:52.723Z,100.00
2023-01-29T06:07:45.259Z,100.00
2023-01-29T06:10:33.338Z,100.00
2023-01-29T06:13:23.422Z,100.00
2023-01-29T06:16:14.167Z,100.00
2023-01-29T06:19:02.136Z,100.00
2023-01-29T06:21:49.851Z,100.00
2023-01-29T06:24:37.804Z,100.00
2023-01-29T06:27:25.556Z,100.00
2023-01-29T06:30:14.444Z,100.00
2023-01-29T06:33:02.904Z,100.00
2023-01-29T06:36:00.407Z,100.00
2023-01-29T06:38:48.369Z,100.00
2023-01-29T06:41:36.092Z,100.00
2023-01-29T06:44:23.909Z,100.00
2023-01-29T06:47:12.122Z,100.00
2023-01-29T06:49:59.983Z,100.00
2023-01-29T06:52:47.758Z,100.00
2023-01-29T06:55:35.879Z,100.00
2023-01-29T06:58:23.927Z,100.00
2023-01-29T07:01:25.481Z,100.00
2023-01-29T07:04:21.133Z,100.00
2023-01-29T07:07:13.460Z,100.00
2023-01-29T07:10:01.755Z,100.00
2023-01-29T07:12:49.911Z,100.00
2023-01-29T07:15:37.870Z,100.00
2023-01-29T07:18:26.061Z,100.00
2023-01-29T07:21:14.307Z,100.00
2023-01-29T07:24:01.854Z,100.00
2023-01-29T07:26:49.775Z,100.00
2023-01-29T07:29:37.572Z,100.00
2023-01-29T07:32:29.282Z,100.00
2023-01-29T07:35:17.218Z,100.00
2023-01-29T07:38:05.357Z,100.00
2023-01-29T07:40:53.967Z,100.00
2023-01-29T07:43:42.050Z,100.00
2023-01-29T07:46:30.193Z,100.00
2023-01-29T07:49:18.081Z,100.00
2023-01-29T07:52:06.014Z,100.00
2023-01-29T07:54:53.841Z,100.00
2023-01-29T07:57:42.153Z,100.00
2023-01-29T08:00:32.181Z,100.00
2023-01-29T08:03:20.954Z,100.00
2023-01-29T08:06:09.019Z,100.00
2023-01-29T08:08:57.579Z,100.00
2023-01-29T08:11:45.546Z,100.00
2023-01-29T08:14:34.136Z,100.00
2023-01-29T08:17:22.301Z,100.00
2023-01-29T08:20:11.481Z,100.00
2023-01-29T08:23:06.695Z,100.00
2023-01-29T08:25:54.460Z,100.00
2023-01-29T08:28:42.591Z,100.00
2023-01-29T08:31:30.278Z,100.00
2023-01-29T08:34:18.500Z,100.00
2023-01-29T08:37:06.218Z,100.00
2023-01-29T08:39:54.178Z,100.00
2023-01-29T08:42:42.152Z,100.00
2023-01-29T08:45:31.303Z,100.00
2023-01-29T08:48:19.976Z,100.00
2023-01-29T08:51:08.263Z,100.00
2023-01-29T08:53:56.709Z,100.00
2023-01-29T08:56:45.421Z,100.00
2023-01-29T08:59:34.289Z,100.00
2023-01-29T09:02:22.010Z,100.00
2023-01-29T09:05:10.695Z,100.00
2023-01-29T09:07:59.414Z,100.00
2023-01-29T09:10:47.197Z,100.00
2023-01-29T09:13:35.268Z,100.00
2023-01-29T09:16:22.959Z,99.94
2023-01-29T09:19:11.339Z,99.91
2023-01-29T09:21:59.144Z,99.89
2023-01-29T09:24:47.293Z,99.85
2023-01-29T09:27:35.617Z,99.59
2023-01-29T09:30:23.440Z,99.18
2023-01-29T09:33:12.151Z,99.29
2023-01-29T09:36:00.044Z,99.67
2023-01-29T09:38:48.301Z,99.83
2023-01-29T09:42:00.310Z,99.95
2023-01-29T09:45:15.191Z,99.85
2023-01-29T09:48:05.940Z,100.00
2023-01-29T09:50:57.926Z,100.00
2023-01-29T09:53:58.790Z,100.00
2023-01-29T09:56:50.970Z,100.00
2023-01-29T09:59:39.174Z,100.00
2023-01-29T10:03:09.351Z,100.00
2023-01-29T10:06:24.746Z,100.00
2023-01-29T10:09:52.913Z,100.00
2023-01-29T10:13:24.770Z,100.00
2023-01-29T10:16:39.024Z,100.00
2023-01-29T10:20:03.904Z,100.00
2023-01-29T10:23:13.712Z,100.00
2023-01-29T10:26:02.968Z,100.00
2023-01-29T10:28:54.721Z,99.95
2023-01-29T10:31:44.871Z,99.96
2023-01-29T10:34:41.549Z,99.99
2023-01-29T10:37:41.567Z,99.97
2023-01-29T10:40:47.193Z,99.95
2023-01-29T10:43:46.069Z,99.13
2023-01-29T10:46:55.152Z,98.99
2023-01-29T10:50:23.131Z,98.50
2023-01-29T10:53:25.675Z,98.01
2023-01-29T10:56:23.113Z,98.15
2023-01-29T10:59:29.470Z,97.92
2023-01-29T11:02:22.176Z,97.18
2023-01-29T11:05:27.899Z,97.23
2023-01-29T11:08:22.502Z,97.09
2023-01-29T11:11:22.046Z,96.81
2023-01-29T11:14:21.614Z,96.85
2023-01-29T11:17:19.901Z,97.11
2023-01-29T11:20:45.650Z,97.13
2023-01-29T11:23:34.243Z,97.54
2023-01-29T11:26:24.057Z,97.67
2023-01-29T11:29:29.971Z,97.56
2023-01-29T11:32:23.941Z,97.40
2023-01-29T11:35:22.689Z,97.54
2023-01-29T11:38:16.951Z,97.61
2023-01-29T11:41:22.578Z,97.30
2023-01-29T11:44:42.898Z,97.47
2023-01-29T11:47:31.227Z,97.61
2023-01-29T11:50:34.692Z,98.12
2023-01-29T11:53:41.289Z,98.16
2023-01-29T11:56:34.292Z,98.06
2023-01-29T11:59:39.942Z,98.59
2023-01-29T12:02:32.284Z,98.57
2023-01-29T12:05:24.728Z,98.66
2023-01-29T12:08:18.476Z,98.76
2023-01-29T12:11:24.636Z,98.53
2023-01-29T12:14:34.325Z,98.88
2023-01-29T12:17:26.414Z,98.90
2023-01-29T12:20:33.618Z,98.95
2023-01-29T12:23:31.009Z,99.22
2023-01-29T12:26:34.107Z,99.69
2023-01-29T12:29:42.032Z,99.78
2023-01-29T12:32:56.832Z,99.75
2023-01-29T12:35:50.838Z,99.86
2023-01-29T12:38:38.885Z,100.00
2023-01-29T12:41:52.539Z,99.94
2023-01-29T12:44:49.070Z,99.83
2023-01-29T12:48:00.868Z,99.84
2023-01-29T12:50:50.317Z,100.00
2023-01-29T12:53:48.961Z,100.00
2023-01-29T12:56:47.310Z,100.00
2023-01-29T12:59:51.983Z,100.00
2023-01-29T13:02:46.352Z,100.00
2023-01-29T13:05:53.095Z,100.00
2023-01-29T13:08:54.969Z,100.00
2023-01-29T13:12:10.589Z,100.00
2023-01-29T13:15:16.182Z,100.00
2023-01-29T13:18:45.570Z,100.00
2023-01-29T13:21:43.997Z,100.00
2023-01-29T13:24:44.358Z,100.00
2023-01-29T13:27:37.503Z,100.00
2023-01-29T13:30:37.048Z,100.00
2023-01-29T13:33:25.380Z,100.00
2023-01-29T13:36:23.446Z,100.00
2023-01-29T13:39:26.175Z,100.00
2023-01-29T13:42:22.207Z,100.00
2023-01-29T13:45:21.338Z,100.00
2023-01-29T13:48:32.510Z,100.00
2023-01-29T13:51:27.171Z,100.00
2023-01-29T13:54:24.435Z,100.00
2023-01-29T13:57:55.982Z,100.00
2023-01-29T14:00:44.329Z,100.00
2023-01-29T14:03:39.994Z,100.00
2023-01-29T14:06:44.397Z,100.00
2023-01-29T14:09:38.399Z,100.00
2023-01-29T14:12:32.207Z,100.00
2023-01-29T14:15:41.976Z,100.00
2023-01-29T14:18:32.859Z,100.00
2023-01-29T14:21:31.430Z,100.00
2023-01-29T14:24:24.943Z,100.00
2023-01-29T14:27:23.018Z,100.00
2023-01-29T14:30:18.810Z,100.00
2023-01-29T14:33:18.765Z,100.00
2023-01-29T14:36:14.039Z,100.00
2023-01-29T14:39:01.729Z,100.00
2023-01-29T14:41:51.573Z,100.00
2023-01-29T14:44:45.476Z,100.00
2023-01-29T14:47:33.736Z,100.00
2023-01-29T14:50:31.987Z,100.00
2023-01-29T14:53:35.222Z,100.00
2023-01-29T14:56:33.768Z,100.00
2023-01-29T14:59:38.039Z,100.00
2023-01-29T15:02:39.351Z,100.00
2023-01-29T15:05:33.004Z,100.00
2023-01-29T15:08:38.977Z,100.00
2023-01-29T15:12:33.542Z,100.00
2023-01-29T15:15:55.213Z,100.00
2023-01-29T15:18:43.862Z,100.00
2023-01-29T15:21:31.707Z,100.00
2023-01-29T15:24:19.907Z,100.00
2023-01-29T15:27:20.148Z,100.00
2023-01-29T15:30:14.733Z,100.00
2023-01-29T15:33:04.000Z,100.00
2023-01-29T15:36:07.313Z,100.00
2023-01-29T15:39:22.709Z,100.00
2023-01-29T15:42:21.744Z,100.00
2023-01-29T15:45:27.461Z,100.00
2023-01-29T15:48:20.907Z,100.00
2023-01-29T15:51:16.125Z,100.00
2023-01-29T15:54:09.943Z,100.00
2023-01-29T15:56:58.487Z,100.00
2023-01-29T15:59:46.321Z,100.00
2023-01-29T16:02:42.125Z,100.00
2023-01-29T16:05:33.062Z,100.00
2023-01-29T16:08:26.995Z,100.00
2023-01-29T16:11:18.028Z,100.00
2023-01-29T16:14:07.718Z,100.00
2023-01-29T16:16:55.701Z,100.00
2023-01-29T16:19:43.472Z,100.00
2023-01-29T16:22:37.948Z,100.00
2023-01-29T16:25:31.469Z,100.00
2023-01-29T16:28:19.961Z,100.00
2023-01-29T16:31:08.151Z,100.00
2023-01-29T16:33:59.172Z,100.00
2023-01-29T16:36:48.715Z,100.00
2023-01-29T16:39:45.297Z,100.00
2023-01-29T16:42:32.992Z,100.00
2023-01-29T16:45:30.823Z,100.00
2023-01-29T16:48:30.799Z,100.00
2023-01-29T16:51:37.223Z,100.00
2023-01-29T16:54:27.700Z,100.00
2023-01-29T16:57:31.376Z,100.00
2023-01-29T17:00:27.641Z,100.00
2023-01-29T17:03:18.242Z,100.00
2023-01-29T17:06:23.390Z,100.00
2023-01-29T17:09:38.419Z,100.00
2023-01-29T17:12:29.379Z,100.00
2023-01-29T17:15:47.053Z,100.00
2023-01-29T17:18:35.185Z,100.00
2023-01-29T17:21:23.641Z,100.00
2023-01-29T17:24:11.688Z,100.00
2023-01-29T17:27:01.392Z,100.00
2023-01-29T17:29:52.038Z,100.00
2023-01-29T17:32:44.042Z,100.00
2023-01-29T17:35:32.869Z,100.00
2023-01-29T17:38:26.279Z,100.00
2023-01-29T17:41:22.423Z,100.00
2023-01-29T17:44:10.557Z,100.00
2023-01-29T17:46:58.659Z,100.00
2023-01-29T17:49:48.601Z,100.00
2023-01-29T17:52:36.750Z,100.00
2023-01-29T17:55:24.632Z,100.00
2023-01-29T17:58:23.882Z,100.00
2023-01-29T18:01:11.904Z,100.00
2023-01-29T18:04:00.070Z,100.00
2023-01-29T18:06:51.391Z,100.00
2023-01-29T18:09:39.355Z,100.00
2023-01-29T18:12:27.259Z,100.00
2023-01-29T18:15:16.294Z,100.00
2023-01-29T18:18:06.409Z,100.00
2023-01-29T18:20:54.346Z,100.00
2023-01-29T18:23:43.866Z,100.00
2023-01-29T18:26:31.774Z,100.00
2023-01-29T18:29:19.730Z,100.00
2023-01-29T18:32:07.849Z,100.00
2023-01-29T18:34:55.709Z,100.00
2023-01-29T18:37:44.410Z,100.00
2023-01-29T18:40:32.703Z,100.00
2023-01-29T18:43:20.706Z,100.00
2023-01-29T18:46:09.293Z,100.00
2023-01-29T18:48:57.647Z,100.00
2023-01-29T18:51:45.795Z,100.00
2023-01-29T18:54:33.663Z,100.00
2023-01-29T18:58:28.186Z,100.00
2023-01-29T19:00:34.342Z,100.00
2023-01-29T19:03:25.648Z,99.94
2023-01-29T19:06:14.106Z,99.92
2023-01-29T19:09:02.356Z,99.71
2023-01-29T19:11:50.231Z,99.54
2023-01-29T19:14:38.487Z,99.60
2023-01-29T19:17:27.089Z,99.50
2023-01-29T19:20:15.684Z,99.06
2023-01-29T19:23:06.751Z,99.02
2023-01-29T19:25:57.821Z,98.94
2023-01-29T19:28:45.975Z,98.75
2023-01-29T19:31:33.972Z,98.63
2023-01-29T19:34:22.378Z,98.43
2023-01-29T19:37:10.621Z,98.75
2023-01-29T19:39:58.621Z,98.89
2023-01-29T19:42:46.691Z,98.73
2023-01-29T19:45:43.143Z,98.82
2023-01-29T19:48:40.943Z,98.82
2023-01-29T19:51:29.374Z,98.71
2023-01-29T19:54:17.402Z,98.91
2023-01-29T19:57:09.047Z,99.09
2023-01-29T20:00:01.229Z,99.04
2023-01-29T20:02:52.327Z,99.10
2023-01-29T20:05:40.539Z,99.12
2023-01-29T20:08:28.714Z,99.18
2023-01-29T20:11:20.769Z,98.99
2023-01-29T20:14:13.741Z,98.93
2023-01-29T20:17:01.723Z,98.75
2023-01-29T20:19:49.712Z,98.73
2023-01-29T20:22:37.767Z,98.91
2023-01-29T20:25:25.362Z,98.82
2023-01-29T20:28:15.931Z,98.81
2023-01-29T20:31:07.735Z,98.57
2023-01-29T20:33:55.991Z,98.52
2023-01-29T20:36:43.964Z,98.35
2023-01-29T20:39:32.333Z,98.47
2023-01-29T20:42:20.238Z,98.50
2023-01-29T20:45:08.686Z,98.51
2023-01-29T20:47:58.039Z,98.29
2023-01-29T20:50:45.855Z,98.49
2023-01-29T20:53:34.255Z,98.41
2023-01-29T20:56:32.093Z,98.44
2023-01-29T20:59:30.015Z,98.67
2023-01-29T21:02:17.827Z,98.81
2023-01-29T21:05:07.214Z,99.00
2023-01-29T21:07:55.751Z,99.20
2023-01-29T21:10:45.297Z,99.45
2023-01-29T21:13:33.483Z,99.50
2023-01-29T21:16:21.811Z,99.54
2023-01-29T21:19:14.813Z,99.60
2023-01-29T21:22:03.029Z,99.72
2023-01-29T21:24:52.705Z,99.62
2023-01-29T21:27:40.682Z,99.86
2023-01-29T21:30:28.744Z,99.64
2023-01-29T21:33:16.781Z,99.84
2023-01-29T21:36:05.575Z,99.93
2023-01-29T21:38:53.662Z,99.93
2023-01-29T21:41:59.944Z,99.97
2023-01-29T21:44:47.804Z,99.98
2023-01-29T21:47:35.679Z,100.00
2023-01-29T21:50:23.898Z,100.00
2023-01-29T21:53:11.552Z,100.00
2023-01-29T21:56:04.873Z,99.88
2023-01-29T21:58:53.001Z,99.92
2023-01-29T22:01:41.381Z,99.83
2023-01-29T22:04:29.579Z,99.37
2023-01-29T22:07:17.511Z,99.54
2023-01-29T22:10:06.306Z,99.22
2023-01-29T22:12:54.282Z,99.20
2023-01-29T22:15:42.376Z,99.12
2023-01-29T22:18:30.234Z,99.10
2023-01-29T22:21:18.037Z,99.26
2023-01-29T22:24:07.578Z,99.19
2023-01-29T22:26:55.900Z,99.07
2023-01-29T22:29:44.062Z,98.96
2023-01-29T22:32:33.380Z,98.82
2023-01-29T22:35:21.240Z,98.86
2023-01-29T22:38:09.174Z,98.73
2023-01-29T22:40:58.063Z,98.70
2023-01-29T22:43:46.018Z,98.35
2023-01-29T22:46:33.977Z,98.49
2023-01-29T22:49:23.188Z,98.35
2023-01-29T22:52:11.201Z,98.30
2023-01-29T22:54:59.175Z,98.04
2023-01-29T22:57:50.147Z,98.01
2023-01-29T23:00:37.755Z,97.68
2023-01-29T23:03:26.075Z,97.68
2023-01-29T23:06:16.271Z,97.59
2023-01-29T23:09:04.346Z,97.42
2023-01-29T23:11:52.573Z,97.41
2023-01-29T23:14:40.954Z,97.49
2023-01-29T23:17:29.059Z,97.36
2023-01-29T23:20:20.714Z,97.42
2023-01-29T23:23:08.521Z,97.31
2023-01-29T23:26:19.113Z,97.36
2023-01-29T23:29:06.967Z,97.51
2023-01-29T23:31:54.803Z,97.69
2023-01-29T23:34:43.075Z,97.84
2023-01-29T23:37:30.738Z,98.02
2023-01-29T23:40:18.949Z,98.24
2023-01-29T23:43:07.268Z,98.33
2023-01-29T23:45:56.008Z,98.78
2023-01-29T23:48:43.894Z,98.84
2023-01-29T23:51:31.885Z,98.85
2023-01-29T23:54:19.893Z,99.06
2023-01-29T23:57:07.992Z,99.19
2023-01-29T23:59:55.887Z,99.13
